Time;durP1;ratioP1;P1;durP2;ratioP2;P2;SDS_P1;SDS_P2;PMS_P1;PMS_P2;Temp;Humidity;BMP_temperature;BMP_pressure;BME280_temperature;BME280_humidity;BME280_pressure;Samples;Min_cycle;Max_cycle;Signal;HPM_P1;HPM_P2
2022/08/20 00:02:23;;;;;;;9.45;1.98;;;16.20;99.90;;;;;;6275150;22;20453;-87
2022/08/20 00:04:49;;;;;;;15.95;2.13;;;16.20;99.90;;;;;;6302431;22;20053;-85
2022/08/20 00:07:15;;;;;;;12.05;2.00;;;16.20;99.90;;;;;;6302685;22;20090;-87
2022/08/20 00:09:42;;;;;;;12.85;2.15;;;16.20;99.90;;;;;;6302628;22;20002;-85
2022/08/20 00:12:09;;;;;;;7.22;1.80;;;16.20;99.90;;;;;;6302522;22;20000;-85
2022/08/20 00:14:35;;;;;;;7.80;1.90;;;17.50;99.90;;;;;;6275162;22;20025;-87
2022/08/20 00:17:02;;;;;;;9.65;2.25;;;16.20;99.90;;;;;;6303351;22;20424;-85
2022/08/20 00:19:28;;;;;;;12.02;2.33;;;17.30;99.90;;;;;;6302747;22;20006;-87
2022/08/20 00:21:54;;;;;;;11.52;2.42;;;16.30;99.90;;;;;;6302543;22;20067;-85
2022/08/20 00:24:19;;;;;;;10.93;2.33;;;16.30;99.90;;;;;;6302516;22;20321;-86
2022/08/20 00:26:45;;;;;;;10.10;2.40;;;16.30;99.90;;;;;;6302289;22;19995;-85
2022/08/20 00:29:11;;;;;;;10.60;2.33;;;16.30;99.90;;;;;;6275063;22;20015;-86
2022/08/20 00:31:36;;;;;;;14.75;2.80;;;16.30;99.90;;;;;;6302389;22;20003;-85
2022/08/20 00:34:02;;;;;;;10.68;2.28;;;16.40;99.90;;;;;;6303333;22;20347;-87
2022/08/20 00:36:28;;;;;;;11.68;2.63;;;16.40;99.90;;;;;;6302468;22;20072;-85
2022/08/20 00:38:54;;;;;;;16.45;3.20;;;16.40;99.90;;;;;;6275082;22;20011;-87
2022/08/20 00:41:24;;;;;;;15.98;2.80;;;16.40;99.90;;;;;;6275089;22;20011;-86
2022/08/20 00:44:12;;;;;;;13.93;2.88;;;16.30;99.90;;;;;;6274934;22;20065;-85
2022/08/20 00:46:39;;;;;;;11.98;2.35;;;16.40;99.90;;;;;;6280658;22;20023;-85
2022/08/20 00:49:08;;;;;;;11.02;2.70;;;16.40;99.90;;;;;;6303435;22;20094;-85
2022/08/20 00:51:41;;;;;;;12.48;2.40;;;16.30;99.90;;;;;;6304494;22;20003;-86
2022/08/20 00:54:30;;;;;;;8.10;2.30;;;16.40;99.90;;;;;;6304736;22;20003;-85
2022/08/20 00:57:02;;;;;;;10.60;2.15;;;16.40;99.90;;;;;;6302333;22;20070;-86
2022/08/20 00:59:31;;;;;;;12.38;2.38;;;16.40;99.90;;;;;;6320486;22;19999;-85
2022/08/20 01:01:59;;;;;;;18.15;2.60;;;16.40;99.90;;;;;;6277669;22;20435;-86
2022/08/20 01:04:28;;;;;;;8.30;2.30;;;16.40;99.90;;;;;;6277038;22;20007;-85
2022/08/20 01:06:54;;;;;;;13.35;2.88;;;16.40;99.90;;;;;;6277168;22;20034;-85
2022/08/20 01:09:21;;;;;;;11.52;2.60;;;16.40;99.90;;;;;;6304909;22;20084;-85
2022/08/20 01:11:46;;;;;;;17.52;2.78;;;16.40;99.90;;;;;;6303966;22;20000;-87
2022/08/20 01:14:27;;;;;;;10.90;2.20;;;16.40;99.90;;;;;;6276892;22;20355;-86
2022/08/20 01:16:57;;;;;;;14.40;2.65;;;16.40;99.90;;;;;;6304211;22;20030;-87
2022/08/20 01:19:38;;;;;;;13.95;2.20;;;16.40;99.90;;;;;;6276672;22;20082;-85
2022/08/20 01:23:25;;;;;;;8.88;2.22;;;16.40;99.90;;;;;;6277589;22;20073;-86
2022/08/20 01:24:55;;;;;;;;;;;16.40;99.90;;;;;;6304358;22;19999;-87
2022/08/20 01:27:21;;;;;;;10.25;2.45;;;16.40;99.90;;;;;;6304018;22;19903;-85
2022/08/20 01:29:49;;;;;;;13.00;2.72;;;16.40;99.90;;;;;;6304009;22;20014;-86
2022/08/20 01:32:14;;;;;;;8.40;2.20;;;16.40;99.90;;;;;;6303876;22;20458;-87
2022/08/20 01:34:40;;;;;;;12.68;2.70;;;16.40;99.90;;;;;;6303853;22;20226;-86
2022/08/20 01:37:06;;;;;;;11.05;2.60;;;16.40;99.90;;;;;;6305210;22;20003;-87
2022/08/20 01:39:34;;;;;;;10.45;2.20;;;16.40;99.90;;;;;;6303989;22;20382;-85
2022/08/20 01:42:21;;;;;;;10.68;2.65;;;16.40;99.90;;;;;;6276636;22;20391;-86
2022/08/20 01:44:48;;;;;;;13.05;2.53;;;16.40;99.90;;;;;;6276385;22;20004;-87
2022/08/20 01:47:23;;;;;;;13.90;2.50;;;16.40;99.90;;;;;;6276490;22;20015;-86
2022/08/20 01:49:53;;;;;;;8.95;2.33;;;16.30;99.90;;;;;;6303519;22;20004;-85
2022/08/20 01:52:23;;;;;;;7.78;2.25;;;16.30;99.90;;;;;;6303782;22;20439;-85
2022/08/20 01:54:49;;;;;;;8.45;2.60;;;16.30;99.90;;;;;;6276629;22;20003;-86
2022/08/20 01:57:17;;;;;;;12.23;2.53;;;16.30;99.90;;;;;;6276354;22;20472;-86
2022/08/20 01:59:44;;;;;;;4.63;1.75;;;16.30;99.90;;;;;;6303541;22;20028;-87
2022/08/20 02:02:11;;;;;;;10.88;2.67;;;16.20;99.90;;;;;;6304647;22;20003;-86
2022/08/20 02:04:39;;;;;;;14.60;2.80;;;16.40;99.90;;;;;;6305062;22;20007;-85
2022/08/20 02:07:06;;;;;;;13.87;2.33;;;16.30;99.90;;;;;;6303629;22;20052;-87
2022/08/20 02:09:35;;;;;;;7.68;2.20;;;16.20;99.90;;;;;;6303242;22;20007;-85
2022/08/20 02:12:03;;;;;;;12.60;2.55;;;16.30;99.90;;;;;;6303500;22;20384;-85
2022/08/20 02:14:29;;;;;;;12.20;2.53;;;16.20;99.90;;;;;;6276442;22;20089;-86
2022/08/20 02:16:57;;;;;;;12.25;2.72;;;16.20;99.90;;;;;;6304204;22;20450;-85
2022/08/20 02:19:40;;;;;;;8.82;2.28;;;16.20;99.90;;;;;;6276341;22;20007;-85
2022/08/20 02:22:39;;;;;;;7.07;2.03;;;16.20;99.90;;;;;;6303300;22;20007;-85
2022/08/20 02:25:07;;;;;;;14.63;2.65;;;16.10;99.90;;;;;;6275970;22;20003;-85
2022/08/20 02:27:33;;;;;;;12.20;2.63;;;16.10;99.90;;;;;;6303526;22;20425;-85
2022/08/20 02:29:59;;;;;;;12.00;2.47;;;16.00;99.90;;;;;;6276103;22;20037;-87
2022/08/20 02:32:25;;;;;;;8.50;2.60;;;16.00;99.90;;;;;;6303461;22;20000;-85
2022/08/20 02:34:51;;;;;;;8.75;2.28;;;15.90;99.90;;;;;;6303286;22;19999;-87
2022/08/20 02:37:17;;;;;;;8.18;2.78;;;15.90;99.90;;;;;;6303526;22;20399;-85
2022/08/20 02:39:44;;;;;;;10.95;2.47;;;15.90;99.90;;;;;;6277146;22;20023;-86
2022/08/20 02:42:11;;;;;;;13.63;2.50;;;15.80;99.90;;;;;;6304438;22;20049;-87
2022/08/20 02:44:38;;;;;;;13.80;2.67;;;15.70;99.90;;;;;;6276282;22;20091;-85
2022/08/20 02:47:04;;;;;;;7.95;1.98;;;15.70;99.90;;;;;;6303150;22;20349;-85
2022/08/20 02:49:30;;;;;;;8.55;2.05;;;15.60;99.90;;;;;;6303067;22;20037;-87
2022/08/20 02:51:56;;;;;;;13.13;2.05;;;15.60;99.90;;;;;;6276047;22;20082;-85
2022/08/20 02:54:23;;;;;;;8.48;2.22;;;15.50;99.90;;;;;;6276272;22;20073;-85
2022/08/20 02:56:49;;;;;;;9.25;2.25;;;15.40;99.90;;;;;;6275914;22;20030;-88
2022/08/20 02:59:14;;;;;;;9.18;2.45;;;15.40;99.90;;;;;;6303239;22;20004;-86
2022/08/20 03:01:40;;;;;;;11.70;2.50;;;15.40;99.90;;;;;;6276793;22;20325;-86
2022/08/20 03:04:06;;;;;;;9.27;2.10;;;15.30;99.90;;;;;;6275725;22;20007;-85
2022/08/20 03:06:31;;;;;;;11.13;2.30;;;15.30;99.90;;;;;;6303351;22;20029;-87
2022/08/20 03:08:57;;;;;;;6.97;2.08;;;15.30;99.90;;;;;;6276004;22;20094;-86
2022/08/20 03:11:23;;;;;;;4.47;1.88;;;15.30;99.90;;;;;;6303009;22;19995;-86
2022/08/20 03:13:48;;;;;;;9.82;2.38;;;15.30;99.90;;;;;;6275928;22;20010;-87
2022/08/20 03:16:14;;;;;;;9.52;2.30;;;15.20;99.90;;;;;;6276488;22;20086;-87
2022/08/20 03:18:43;;;;;;;14.20;2.58;;;15.30;99.90;;;;;;6276637;22;20049;-86
2022/08/20 03:21:09;;;;;;;5.22;1.88;;;15.20;99.90;;;;;;6275216;22;20003;-87
2022/08/20 03:23:37;;;;;;;9.02;1.95;;;15.10;99.90;;;;;;6303062;22;20204;-85
2022/08/20 03:26:04;;;;;;;6.38;1.95;;;15.10;99.90;;;;;;6275580;22;20035;-87
2022/08/20 03:28:30;;;;;;;9.63;2.40;;;15.10;99.90;;;;;;6302839;22;20007;-85
2022/08/20 03:30:58;;;;;;;9.10;1.90;;;15.10;99.90;;;;;;6302820;22;20053;-87
2022/08/20 03:33:24;;;;;;;4.53;1.90;;;15.10;99.90;;;;;;6302622;22;19999;-87
2022/08/20 03:35:50;;;;;;;8.40;2.15;;;15.10;99.90;;;;;;6302764;22;20070;-86
2022/08/20 03:38:17;;;;;;;7.97;2.17;;;15.00;99.90;;;;;;6311810;22;20006;-86
2022/08/20 03:40:44;;;;;;;13.45;2.53;;;15.10;99.90;;;;;;6319150;22;20004;-85
2022/08/20 03:43:10;;;;;;;10.13;2.30;;;15.10;99.90;;;;;;6314262;22;20453;-87
2022/08/20 03:45:38;;;;;;;9.07;2.08;;;15.10;99.90;;;;;;6303489;22;19995;-85
2022/08/20 03:48:06;;;;;;;7.03;2.10;;;15.10;99.90;;;;;;6302456;22;20039;-85
2022/08/20 03:50:32;;;;;;;7.00;2.40;;;15.10;99.90;;;;;;6302888;22;19995;-87
2022/08/20 03:53:00;;;;;;;10.85;2.53;;;15.10;99.90;;;;;;6302684;22;20027;-85
2022/08/20 03:55:28;;;;;;;11.75;2.50;;;15.10;99.90;;;;;;6302638;22;19996;-87
2022/08/20 03:57:56;;;;;;;7.10;2.25;;;15.10;99.90;;;;;;6275178;22;20003;-85
2022/08/20 04:00:28;;;;;;;9.15;2.05;;;15.10;99.90;;;;;;6302337;22;20022;-85
2022/08/20 04:02:55;;;;;;;8.15;2.20;;;15.10;99.90;;;;;;6302726;22;20007;-85
2022/08/20 04:05:23;;;;;;;8.82;2.35;;;15.10;99.90;;;;;;6275360;22;20049;-86
2022/08/20 04:07:49;;;;;;;12.07;2.67;;;15.10;99.90;;;;;;6302525;22;20497;-85
2022/08/20 04:10:15;;;;;;;7.25;2.40;;;15.20;99.90;;;;;;6303539;22;20074;-86
2022/08/20 04:12:41;;;;;;;13.32;2.08;;;15.10;99.90;;;;;;6302382;22;20000;-88
2022/08/20 04:15:12;;;;;;;9.00;2.30;;;15.00;99.90;;;;;;6302251;22;20070;-85
2022/08/20 04:17:41;;;;;;;8.20;2.25;;;15.00;99.90;;;;;;6303017;22;20053;-87
2022/08/20 04:20:08;;;;;;;11.00;2.50;;;15.00;99.90;;;;;;6302562;22;20007;-87
2022/08/20 04:22:35;;;;;;;9.27;2.20;;;14.90;99.90;;;;;;6302340;22;20003;-87
2022/08/20 04:25:02;;;;;;;7.05;2.15;;;14.90;99.90;;;;;;6302334;22;20029;-85
2022/08/20 04:27:27;;;;;;;11.18;2.40;;;14.90;99.90;;;;;;6302192;22;20011;-84
2022/08/20 04:29:53;;;;;;;11.73;2.20;;;14.90;99.90;;;;;;6275132;22;20114;-86
2022/08/20 04:32:20;;;;;;;10.07;2.22;;;14.80;99.90;;;;;;6275190;22;20003;-85
2022/08/20 04:34:46;;;;;;;14.13;2.78;;;14.80;99.90;;;;;;6275992;22;20074;-87
2022/08/20 04:37:12;;;;;;;12.13;2.58;;;14.90;99.90;;;;;;6275277;22;20035;-84
2022/08/20 04:39:38;;;;;;;8.02;2.15;;;14.90;99.90;;;;;;6275285;22;20015;-85
2022/08/20 04:42:04;;;;;;;6.85;1.80;;;14.90;99.90;;;;;;6302239;22;20018;-87
2022/08/20 04:44:29;;;;;;;6.53;1.70;;;14.90;99.90;;;;;;6275096;22;20007;-86
2022/08/20 04:46:55;;;;;;;8.35;2.13;;;14.80;99.90;;;;;;6274975;22;20399;-85
2022/08/20 04:49:23;;;;;;;9.95;2.05;;;14.80;99.90;;;;;;6274704;22;20098;-86
2022/08/20 04:51:50;;;;;;;6.55;1.98;;;14.80;99.90;;;;;;6303378;22;20508;-85
2022/08/20 04:54:15;;;;;;;12.48;2.50;;;14.80;99.90;;;;;;6303122;22;20450;-87
2022/08/20 04:56:41;;;;;;;9.43;2.33;;;14.80;99.90;;;;;;6274488;22;20003;-85
2022/08/20 04:59:07;;;;;;;11.30;2.75;;;14.90;99.90;;;;;;6302336;22;20335;-85
2022/08/20 05:01:33;;;;;;;10.60;2.30;;;14.90;99.90;;;;;;6274907;22;20335;-85
2022/08/20 05:03:59;;;;;;;11.07;2.50;;;15.00;99.90;;;;;;6274848;22;20035;-85
2022/08/20 05:06:29;;;;;;;7.15;2.05;;;15.00;99.90;;;;;;6275128;22;20007;-87
2022/08/20 05:08:57;;;;;;;8.32;2.85;;;15.10;99.90;;;;;;6302182;22;20023;-86
2022/08/20 05:11:24;;;;;;;16.52;2.70;;;15.10;99.90;;;;;;6274727;22;20000;-87
2022/08/20 05:13:51;;;;;;;11.43;3.03;;;15.10;99.90;;;;;;6275924;22;20082;-86
2022/08/20 05:16:18;;;;;;;8.07;2.10;;;15.20;99.90;;;;;;6276279;22;20431;-84
2022/08/20 05:18:45;;;;;;;13.07;2.55;;;15.20;99.90;;;;;;6274781;22;20237;-87
2022/08/20 05:21:10;;;;;;;8.98;2.78;;;15.30;99.90;;;;;;6302319;22;19999;-85
2022/08/20 05:23:41;;;;;;;13.05;2.90;;;15.60;99.90;;;;;;6302140;22;20049;-87
2022/08/20 05:26:10;;;;;;;10.20;2.72;;;15.30;99.90;;;;;;6302235;22;20344;-85
2022/08/20 05:28:37;;;;;;;13.20;2.78;;;15.30;99.90;;;;;;6302118;22;20034;-85
2022/08/20 05:31:08;;;;;;;14.03;2.67;;;15.40;99.90;;;;;;6302160;22;20000;-85
2022/08/20 05:33:34;;;;;;;16.35;2.67;;;15.40;99.90;;;;;;6302041;22;20257;-86
2022/08/20 05:36:00;;;;;;;12.15;2.50;;;15.50;99.90;;;;;;6302057;22;20359;-86
2022/08/20 05:38:28;;;;;;;10.52;2.70;;;15.40;99.90;;;;;;6301873;22;20026;-87
2022/08/20 05:40:54;;;;;;;10.87;2.53;;;15.50;99.90;;;;;;6302293;22;19995;-86
2022/08/20 05:43:20;;;;;;;10.82;2.50;;;15.60;99.90;;;;;;6276242;22;20144;-86
2022/08/20 05:45:50;;;;;;;11.45;3.13;;;15.50;99.90;;;;;;6303925;22;19995;-85
2022/08/20 05:48:20;;;;;;;10.73;2.63;;;15.50;99.90;;;;;;6303705;22;20039;-86
2022/08/20 05:50:50;;;;;;;9.93;2.53;;;15.60;99.90;;;;;;6303748;22;20100;-85
2022/08/20 05:53:18;;;;;;;9.50;2.47;;;15.60;99.90;;;;;;6304020;22;20003;-87
2022/08/20 05:55:44;;;;;;;13.65;2.95;;;15.60;99.90;;;;;;6276492;22;20292;-85
2022/08/20 05:58:19;;;;;;;10.40;2.28;;;15.70;99.90;;;;;;6303773;22;19999;-87
2022/08/20 06:00:45;;;;;;;16.05;2.85;;;15.70;99.90;;;;;;6303617;22;20374;-87
2022/08/20 06:05:55;;;;;;;8.35;2.58;;;15.90;99.90;;;;;;6303663;22;20069;-87
2022/08/20 06:08:21;;;;;;;14.23;3.30;;;15.90;99.90;;;;;;6304770;22;20015;-88
2022/08/20 06:10:47;;;;;;;13.02;3.75;;;15.90;99.90;;;;;;6303729;22;20488;-86
2022/08/20 06:13:13;;;;;;;9.75;2.95;;;16.00;99.90;;;;;;6303586;22;20003;-88
2022/08/20 06:15:38;;;;;;;10.75;2.50;;;16.00;99.90;;;;;;6304383;22;20084;-87
2022/08/20 06:18:06;;;;;;;12.35;3.03;;;16.10;99.90;;;;;;6284206;22;20029;-86
2022/08/20 06:20:37;;;;;;;5.03;2.20;;;16.10;99.90;;;;;;6318027;22;20033;-87
2022/08/20 06:23:03;;;;;;;12.73;2.92;;;16.20;99.90;;;;;;6276122;22;20003;-86
2022/08/20 06:25:29;;;;;;;14.95;3.65;;;16.20;99.90;;;;;;6303400;22;20031;-87
2022/08/20 06:27:54;;;;;;;13.18;3.03;;;16.70;99.90;;;;;;6277638;22;20022;-86
2022/08/20 06:30:20;;;;;;;13.55;3.00;;;16.40;99.90;;;;;;6303502;22;19999;-87
2022/08/20 06:32:46;;;;;;;14.38;3.38;;;16.40;99.90;;;;;;6303659;22;20014;-85
2022/08/20 06:35:13;;;;;;;12.73;3.00;;;16.40;99.90;;;;;;6303540;22;20003;-86
2022/08/20 06:37:39;;;;;;;13.18;3.33;;;16.40;99.90;;;;;;6303368;22;20370;-86
2022/08/20 06:40:13;;;;;;;21.63;4.50;;;16.50;99.90;;;;;;6275837;22;20011;-86
2022/08/20 06:42:42;;;;;;;9.88;3.80;;;16.60;99.90;;;;;;6303189;22;20019;-87
2022/08/20 06:45:08;;;;;;;;;;;16.80;99.90;;;;;;6303421;22;20010;-87
2022/08/20 06:47:38;;;;;;;12.80;3.60;;;16.70;99.90;;;;;;6275650;22;19964;-87
2022/08/20 06:50:08;;;;;;;12.57;3.95;;;16.70;99.90;;;;;;6303174;22;20045;-87
2022/08/20 06:52:33;;;;;;;13.57;3.70;;;16.70;99.90;;;;;;6302982;22;20000;-86
2022/08/20 06:54:59;;;;;;;15.73;3.80;;;16.80;99.90;;;;;;6275447;22;20003;-83
2022/08/20 06:57:25;;;;;;;14.32;3.75;;;16.80;99.90;;;;;;6276777;22;20069;-86
2022/08/20 06:59:53;;;;;;;17.17;3.90;;;16.90;99.90;;;;;;6303250;22;20027;-88
2022/08/20 07:02:19;;;;;;;17.40;3.85;;;16.90;99.90;;;;;;6303196;22;20336;-86
2022/08/20 07:04:45;;;;;;;14.50;4.07;;;16.90;99.90;;;;;;6303048;22;20053;-85
2022/08/20 07:07:18;;;;;;;12.15;4.10;;;17.00;99.90;;;;;;6302996;22;19999;-84
2022/08/20 07:09:45;;;;;;;17.52;4.97;;;17.00;99.90;;;;;;6303157;22;20006;-86
2022/08/20 07:12:10;;;;;;;22.02;6.32;;;17.10;99.90;;;;;;6275640;22;20011;-85
2022/08/20 07:14:36;;;;;;;19.08;5.00;;;17.10;99.90;;;;;;6275488;22;20390;-86
2022/08/20 07:17:03;;;;;;;16.40;5.00;;;17.10;99.90;;;;;;6293107;22;19999;-86
2022/08/20 07:19:30;;;;;;;15.63;4.50;;;17.10;99.90;;;;;;6300193;22;20074;-84
2022/08/20 07:21:56;;;;;;;15.73;3.40;;;17.10;99.90;;;;;;6302383;22;20003;-84
2022/08/20 07:24:21;;;;;;;17.48;3.55;;;17.10;99.90;;;;;;6301728;22;20006;-85
2022/08/20 07:26:49;;;;;;;16.20;3.40;;;17.10;99.90;;;;;;6301651;22;20061;-84
2022/08/20 07:29:15;;;;;;;;;;;17.10;99.90;;;;;;6275002;22;20042;-87
2022/08/20 07:34:25;;;;;;;18.27;3.35;;;17.10;99.90;;;;;;6302380;22;20018;-85
2022/08/20 07:36:50;;;;;;;27.05;3.67;;;17.10;99.90;;;;;;6301906;22;20000;-83
2022/08/20 07:39:16;;;;;;;15.93;3.25;;;17.10;99.90;;;;;;6301481;22;20078;-83
2022/08/20 07:41:42;;;;;;;21.65;3.60;;;17.00;99.90;;;;;;6301469;22;20124;-84
2022/08/20 07:44:07;;;;;;;13.85;2.78;;;17.00;99.90;;;;;;6302400;22;20328;-86
2022/08/20 07:46:33;;;;;;;21.10;3.15;;;17.00;99.90;;;;;;6302491;22;20006;-87
2022/08/20 07:48:59;;;;;;;16.40;2.92;;;17.10;99.90;;;;;;6302446;22;20015;-86
2022/08/20 07:51:25;;;;;;;19.33;2.92;;;17.10;99.90;;;;;;6276117;22;20003;-86
2022/08/20 07:53:51;;;;;;;19.13;3.30;;;17.10;99.90;;;;;;6302350;22;20026;-83
2022/08/20 07:56:23;;;;;;;16.60;3.28;;;17.10;99.90;;;;;;6275174;22;20451;-83
2022/08/20 07:58:52;;;;;;;16.23;3.03;;;17.20;99.90;;;;;;6275093;22;20075;-84
2022/08/20 08:01:28;;;;;;;19.48;3.38;;;17.30;99.90;;;;;;6302370;22;20427;-82
2022/08/20 08:03:54;;;;;;;23.55;3.58;;;17.50;99.90;;;;;;6302710;22;20332;-85
2022/08/20 08:06:22;;;;;;;25.40;4.07;;;17.40;99.90;;;;;;6302083;22;20007;-83
2022/08/20 08:08:48;;;;;;;23.05;3.90;;;17.50;99.90;;;;;;6302461;22;20379;-84
2022/08/20 08:11:15;;;;;;;28.70;4.10;;;17.40;99.90;;;;;;6302549;22;19996;-86
2022/08/20 08:13:41;;;;;;;23.40;3.75;;;17.30;99.90;;;;;;6302394;22;20025;-85
2022/08/20 08:16:08;;;;;;;19.77;3.50;;;17.40;99.90;;;;;;6302245;22;20000;-83
2022/08/20 08:18:45;;;;;;;23.45;4.00;;;17.40;99.90;;;;;;6302140;22;20026;-85
2022/08/20 08:21:14;;;;;;;19.83;3.67;;;17.60;99.90;;;;;;6302589;22;19999;-85
2022/08/20 08:23:43;;;;;;;17.92;3.65;;;17.80;99.90;;;;;;6302037;22;20030;-84
2022/08/20 08:26:14;;;;;;;19.85;3.70;;;17.90;99.90;;;;;;6302210;22;20317;-86
2022/08/20 08:28:43;;;;;;;18.38;3.13;;;18.10;99.90;;;;;;6302189;22;20083;-86
2022/08/20 08:31:09;;;;;;;17.58;3.25;;;18.10;99.90;;;;;;6302305;22;20491;-84
2022/08/20 08:33:35;;;;;;;19.88;3.28;;;18.20;99.90;;;;;;6302323;22;20386;-86
2022/08/20 08:36:05;;;;;;;20.17;3.85;;;18.30;99.90;;;;;;6302522;22;19995;-82
2022/08/20 08:38:33;;;;;;;20.17;3.20;;;18.40;99.90;;;;;;6274476;22;20033;-82
2022/08/20 08:41:20;;;;;;;17.42;3.50;;;18.50;99.90;;;;;;6302867;22;20504;-86
2022/08/20 08:43:51;;;;;;;20.60;3.75;;;18.40;99.90;;;;;;6302013;22;20025;-85
2022/08/20 08:46:24;;;;;;;21.63;3.78;;;18.40;99.90;;;;;;6302150;22;20006;-83
2022/08/20 08:48:53;;;;;;;19.88;3.50;;;18.50;99.90;;;;;;6301434;22;20016;-85
2022/08/20 08:51:36;;;;;;;21.15;3.15;;;18.50;99.90;;;;;;6301985;22;20122;-85
2022/08/20 08:54:04;;;;;;;24.58;3.45;;;18.70;99.90;;;;;;6302731;22;20054;-84
2022/08/20 08:56:31;;;;;;;13.77;3.00;;;18.80;99.90;;;;;;6303636;22;20003;-85
2022/08/20 08:59:00;;;;;;;20.40;3.43;;;18.70;99.90;;;;;;6303516;22;19999;-83
2022/08/20 09:01:27;;;;;;;14.60;2.70;;;18.80;99.90;;;;;;6305486;22;20049;-82
2022/08/20 09:03:53;;;;;;;14.77;2.90;;;18.80;99.90;;;;;;6303927;22;20056;-84
2022/08/20 09:06:22;;;;;;;21.05;3.28;;;18.90;99.90;;;;;;6305582;22;20436;-82
2022/08/20 09:09:00;;;;;;;18.73;3.00;;;19.00;99.90;;;;;;6302772;22;20074;-85
2022/08/20 09:11:26;;;;;;;;;;;19.10;99.90;;;;;;6302570;22;20000;-84
2022/08/20 09:13:55;;;;;;;17.48;3.78;;;19.10;99.90;;;;;;6301921;22;20746;-85
2022/08/20 09:16:23;;;;;;;15.43;2.75;;;19.10;99.90;;;;;;6301992;22;20003;-82
2022/08/20 09:18:49;;;;;;;14.63;2.87;;;19.10;99.90;;;;;;6302762;22;19995;-84
2022/08/20 09:21:15;;;;;;;15.80;3.13;;;18.80;99.90;;;;;;6303845;22;20222;-84
2022/08/20 09:23:41;;;;;;;14.57;2.90;;;18.80;99.90;;;;;;6276728;22;20343;-85
2022/08/20 09:26:08;;;;;;;17.80;3.00;;;18.90;99.90;;;;;;6303908;22;20001;-82
2022/08/20 09:28:34;;;;;;;18.40;4.07;;;18.80;99.90;;;;;;6304274;22;20069;-83
2022/08/20 09:31:00;;;;;;;21.95;3.70;;;18.80;99.90;;;;;;6304862;22;20069;-83
2022/08/20 09:33:26;;;;;;;14.98;2.63;;;18.90;99.90;;;;;;6303783;22;20003;-82
2022/08/20 09:35:52;;;;;;;17.08;3.72;;;18.90;99.90;;;;;;6303880;22;20074;-82
2022/08/20 09:38:19;;;;;;;16.58;3.00;;;18.80;99.90;;;;;;6304022;22;20003;-82
2022/08/20 09:40:44;;;;;;;9.88;2.58;;;18.80;99.90;;;;;;6303885;22;20023;-83
2022/08/20 09:43:10;;;;;;;13.05;2.83;;;19.00;99.90;;;;;;6303856;22;20432;-82
2022/08/20 09:45:36;;;;;;;12.60;3.13;;;19.10;99.90;;;;;;6303777;22;20313;-85
2022/08/20 09:48:02;;;;;;;12.48;3.17;;;19.30;99.90;;;;;;6304593;22;20018;-82
2022/08/20 09:50:31;;;;;;;9.15;2.35;;;19.20;99.90;;;;;;6276221;22;20013;-82
2022/08/20 09:52:58;;;;;;;16.10;3.20;;;19.30;99.90;;;;;;6276400;22;20014;-84
2022/08/20 09:55:36;;;;;;;15.68;2.53;;;19.40;99.90;;;;;;6303928;22;20022;-85
2022/08/20 09:58:08;;;;;;;14.65;2.97;;;19.40;99.90;;;;;;6277222;22;20007;-85
2022/08/20 10:00:34;;;;;;;12.55;2.45;;;19.40;99.90;;;;;;6304941;22;20003;-82
2022/08/20 10:03:00;;;;;;;12.70;2.65;;;19.30;99.90;;;;;;6303269;22;20533;-82
2022/08/20 10:05:26;;;;;;;17.02;3.00;;;19.30;99.90;;;;;;6276383;22;20007;-82
2022/08/20 10:07:52;;;;;;;16.35;2.95;;;19.30;99.90;;;;;;6276274;22;20007;-85
2022/08/20 10:10:17;;;;;;;15.70;3.13;;;19.40;99.90;;;;;;6303666;22;20059;-83
2022/08/20 10:12:44;;;;;;;11.75;2.50;;;19.40;99.90;;;;;;6303443;22;19995;-82
2022/08/20 10:15:10;;;;;;;12.15;2.60;;;19.40;99.90;;;;;;6303441;22;20006;-82
2022/08/20 10:17:38;;;;;;;21.38;2.72;;;19.70;99.90;;;;;;6304307;22;20049;-82
2022/08/20 10:20:04;;;;;;;14.55;2.90;;;19.90;99.90;;;;;;6304741;22;20003;-82
2022/08/20 10:22:31;;;;;;;14.82;2.90;;;19.90;99.90;;;;;;6303492;22;20434;-82
2022/08/20 10:24:57;;;;;;;14.13;2.58;;;19.80;99.90;;;;;;6276072;22;20084;-82
2022/08/20 10:27:23;;;;;;;12.15;2.65;;;19.70;99.90;;;;;;6275513;22;20443;-82
2022/08/20 10:29:49;;;;;;;15.20;2.95;;;19.70;99.90;;;;;;6303079;22;19999;-83
2022/08/20 10:32:15;;;;;;;11.63;2.60;;;19.60;99.90;;;;;;6303442;22;20328;-84
2022/08/20 10:34:42;;;;;;;11.50;2.33;;;19.50;99.90;;;;;;6303353;22;20034;-85
2022/08/20 10:37:09;;;;;;;12.50;2.78;;;19.50;99.90;;;;;;6303539;22;20487;-86
2022/08/20 10:39:35;;;;;;;12.73;2.80;;;19.40;99.90;;;;;;6276913;22;20470;-90
2022/08/20 10:42:00;;;;;;;13.93;2.58;;;19.50;99.90;;;;;;6276163;22;19999;-84
2022/08/20 10:44:26;;;;;;;14.15;2.72;;;19.50;99.90;;;;;;6303141;22;20003;-85
2022/08/20 10:46:52;;;;;;;9.95;2.38;;;19.60;99.90;;;;;;6303290;22;20086;-82
2022/08/20 10:49:17;;;;;;;8.80;2.70;;;19.50;99.90;;;;;;6303463;22;20043;-87
2022/08/20 10:51:43;;;;;;;14.40;2.97;;;19.70;99.90;;;;;;6302937;22;20427;-84
2022/08/20 10:54:09;;;;;;;12.02;2.63;;;19.90;99.90;;;;;;6276246;22;20003;-83
2022/08/20 10:56:35;;;;;;;10.85;2.47;;;20.00;99.90;;;;;;6304083;22;20431;-92
2022/08/20 10:59:00;;;;;;;12.65;2.70;;;20.20;99.90;;;;;;6303128;22;20022;-90
2022/08/20 11:01:26;;;;;;;12.85;3.13;;;20.30;99.90;;;;;;6303416;22;19999;-84
2022/08/20 11:03:52;;;;;;;16.27;3.00;;;20.40;99.90;;;;;;6303580;22;19999;-90
2022/08/20 11:06:17;;;;;;;14.38;2.40;;;20.60;99.90;;;;;;6308225;22;19990;-85
2022/08/20 11:08:43;;;;;;;11.25;2.80;;;20.60;99.90;;;;;;6277890;22;20022;-84
2022/08/20 11:11:09;;;;;;;12.60;2.60;;;20.60;99.90;;;;;;6278219;22;20007;-85
2022/08/20 11:13:35;;;;;;;12.25;2.88;;;20.40;99.90;;;;;;6306951;22;19999;-95
2022/08/20 11:16:02;;;;;;;11.95;2.95;;;20.30;99.90;;;;;;6307015;22;19999;-85
2022/08/20 11:18:29;;;;;;;13.00;2.80;;;21.80;99.90;;;;;;6282677;22;20010;-85
2022/08/20 11:20:55;;;;;;;11.98;2.72;;;20.20;99.90;;;;;;6306249;22;19995;-92
2022/08/20 11:23:21;;;;;;;11.43;2.65;;;20.30;99.90;;;;;;6309296;22;20007;-93
2022/08/20 11:25:47;;;;;;;15.40;2.90;;;20.30;99.90;;;;;;6306218;22;20435;-91
2022/08/20 11:28:13;;;;;;;10.80;2.58;;;20.30;99.90;;;;;;6303231;22;20360;-84
2022/08/20 11:30:40;;;;;;;13.63;3.08;;;20.20;99.90;;;;;;6305076;22;20029;-85
2022/08/20 11:33:06;;;;;;;12.95;2.40;;;20.00;99.90;;;;;;6305483;22;20019;-84
2022/08/20 11:35:34;;;;;;;14.48;2.95;;;20.20;99.90;;;;;;6276876;22;20003;-84
2022/08/20 11:38:01;;;;;;;10.18;2.53;;;20.40;99.90;;;;;;6301986;22;20256;-86
2022/08/20 11:40:27;;;;;;;15.95;3.10;;;20.50;99.90;;;;;;6301521;22;19999;-86
2022/08/20 11:42:53;;;;;;;12.52;2.78;;;20.70;99.90;;;;;;6302236;22;20073;-93
2022/08/20 11:45:19;;;;;;;10.05;2.70;;;20.60;99.90;;;;;;6310424;22;20053;-84
2022/08/20 11:47:45;;;;;;;13.00;2.40;;;20.70;99.90;;;;;;6281302;22;20007;-85
2022/08/20 11:50:14;;;;;;;14.70;2.70;;;20.80;99.90;;;;;;6282421;22;20094;-86
2022/08/20 11:52:40;;;;;;;8.07;2.80;;;21.00;99.90;;;;;;6305888;22;20023;-85
2022/08/20 11:55:09;;;;;;;11.73;2.70;;;21.00;99.90;;;;;;6303631;22;19999;-86
2022/08/20 11:57:37;;;;;;;10.35;2.53;;;21.00;99.90;;;;;;6302483;22;20350;-89
2022/08/20 12:00:09;;;;;;;12.90;2.90;;;21.00;99.90;;;;;;6302905;22;20443;-87
2022/08/20 12:02:35;;;;;;;12.55;2.85;;;21.00;99.90;;;;;;6303647;22;20006;-86
2022/08/20 12:05:01;;;;;;;11.93;2.83;;;21.10;99.90;;;;;;6303334;22;20458;-93
2022/08/20 12:07:27;;;;;;;10.00;2.55;;;20.90;99.90;;;;;;6302968;22;20023;-87
2022/08/20 12:09:53;;;;;;;9.00;2.65;;;20.90;99.90;;;;;;6303283;22;20065;-94
2022/08/20 12:12:22;;;;;;;9.05;2.55;;;20.80;99.90;;;;;;6304402;22;19999;-92
2022/08/20 12:14:48;;;;;;;14.23;2.60;;;20.60;99.90;;;;;;6276535;22;20007;-93
2022/08/20 12:17:22;;;;;;;13.23;2.58;;;21.90;99.90;;;;;;6304627;22;20000;-92
2022/08/20 12:19:49;;;;;;;14.13;2.63;;;20.70;99.90;;;;;;6303311;22;20041;-93
2022/08/20 12:22:14;;;;;;;15.23;3.03;;;21.00;99.90;;;;;;6275471;22;20317;-90
2022/08/20 12:24:40;;;;;;;9.93;2.47;;;20.80;99.90;;;;;;6276328;22;20481;-85
2022/08/20 12:27:14;;;;;;;13.52;2.45;;;20.80;99.90;;;;;;6303167;22;20423;-90
2022/08/20 12:29:41;;;;;;;17.52;2.75;;;20.90;99.90;;;;;;6304727;22;20003;-93
2022/08/20 12:32:07;;;;;;;14.05;2.80;;;21.00;99.90;;;;;;6276221;22;20006;-90
2022/08/20 12:34:35;;;;;;;12.10;2.88;;;21.10;99.90;;;;;;6275113;22;20049;-86
2022/08/20 12:37:04;;;;;;;13.23;2.60;;;21.20;99.90;;;;;;6302658;22;19996;-93
2022/08/20 12:39:32;;;;;;;10.60;2.65;;;21.30;99.90;;;;;;6304024;22;20003;-92
2022/08/20 12:41:59;;;;;;;;;;;21.30;99.90;;;;;;6302688;22;20003;-93
2022/08/20 12:44:25;;;;;;;12.77;2.60;;;21.50;99.90;;;;;;6302872;22;19928;-85
2022/08/20 12:46:51;;;;;;;13.80;2.60;;;21.60;99.90;;;;;;6302195;22;19999;-94
2022/08/20 12:49:16;;;;;;;9.65;2.55;;;21.70;99.90;;;;;;6274891;22;20019;-85